»·PEaware :: N15JG KPHX-KPSP

N15JG :: KPHX-KPSP

FLIGHT INFORMATION

Flight Status: Arrived
Operator: Privately registered:
United States
More flights under this callsign
Pilot: Anonymous 11047 (11047)
Aircraft: CESSNA 172 SKYHAWK
(C172)
More flights by this aircraft type
Origin: KPHX Phoenix Sky Harbor Intl
United States
Destination: KPSP Palm Springs Intl
United States
More flights between these airports :: More routes between these airports
Route: +
File this flight plan on PilotEdge
Remarks:
Altitude:
(Current/Filed)
8,500ft
Speed:
(Current/Filed)
0kts
Departed: 30-Apr-17 09:33 AM
Arrived: 30-Apr-17 10:51 AM
Distance/Time
Traveled:
226nm/1:18
Distance/Time
To Go:
Arrived

Flight Plot

Page will automatically refresh every two minutes.

Flight plan parsing failed; only flown route is shown


Map Options




Map Legend


Flown Route
Filed Route
Departure Airport
Arrival Airport
Navaid (VOR, NDB)
Fix

Horizontal Profiles

Position Reports

Time Latitude Longitude Heading Altitude Ground
Speed
30-Apr-17 09:28 33.425576 -112.022345 89 1112ft 0kts
30-Apr-17 09:29 33.425576 -112.022345 89 1112ft 0kts
30-Apr-17 09:30 33.425576 -112.022345 89 1112ft 0kts
30-Apr-17 09:31 33.425576 -112.022275 89 1112ft 4kts
30-Apr-17 09:32 33.427766 -112.022514 269 1112ft 20kts
30-Apr-17 09:33 33.427884 -112.026837 325 1112ft 0kts
30-Apr-17 09:34 33.428264 -112.026974 1 1112ft 12kts
30-Apr-17 09:35 33.428838 -112.010790 89 1173ft 122kts
30-Apr-17 09:36 33.419713 -111.967344 112 2413ft 145kts
30-Apr-17 09:37 33.401165 -111.925140 151 4018ft 153kts
30-Apr-17 09:38 33.374003 -111.952092 272 5632ft 152kts
30-Apr-17 09:39 33.372238 -111.999307 271 7468ft 147kts
30-Apr-17 09:40 33.369385 -112.049797 273 8686ft 168kts
30-Apr-17 09:41 33.367715 -112.102288 272 8208ft 150kts
30-Apr-17 09:42 33.366439 -112.153191 272 8772ft 161kts
30-Apr-17 09:43 33.364157 -112.208893 271 8848ft 184kts
30-Apr-17 09:44 33.360120 -112.273668 269 8454ft 200kts
30-Apr-17 09:45 33.353119 -112.338300 269 8473ft 191kts
30-Apr-17 09:46 33.350058 -112.401813 271 8410ft 193kts
30-Apr-17 09:47 33.347624 -112.465379 270 8444ft 190kts
30-Apr-17 09:48 33.343954 -112.529143 269 8529ft 196kts
30-Apr-17 09:49 33.340512 -112.595082 272 8593ft 200kts
30-Apr-17 09:50 33.338356 -112.662028 272 8645ft 200kts
30-Apr-17 09:51 33.367744 -112.716677 312 8439ft 202kts
30-Apr-17 09:52 33.405107 -112.763904 317 8625ft 194kts
30-Apr-17 09:53 33.439479 -112.814681 304 8524ft 201kts
30-Apr-17 09:54 33.465593 -112.873714 284 8539ft 199kts
30-Apr-17 09:55 33.465920 -112.941844 269 8510ft 203kts
30-Apr-17 09:56 33.465181 -113.009151 278 8552ft 203kts
30-Apr-17 09:57 33.476888 -113.074724 289 8569ft 200kts
30-Apr-17 09:58 33.481233 -113.141849 276 8582ft 203kts
30-Apr-17 09:59 33.487310 -113.209017 281 8527ft 204kts
30-Apr-17 10:00 33.498785 -113.274660 283 8581ft 201kts
30-Apr-17 10:01 33.505004 -113.341760 281 8536ft 204kts
30-Apr-17 10:02 33.512978 -113.408855 282 8536ft 203kts
30-Apr-17 10:03 33.520106 -113.475602 278 8586ft 202kts
30-Apr-17 10:04 33.521522 -113.543429 274 8640ft 202kts
30-Apr-17 10:05 33.521449 -113.611006 275 8601ft 206kts
30-Apr-17 10:06 33.535593 -113.674318 286 8702ft 198kts
30-Apr-17 10:07 33.541485 -113.741948 279 8544ft 207kts
30-Apr-17 10:08 33.547669 -113.810585 280 8500ft 204kts
30-Apr-17 10:09 33.556266 -113.877167 282 8461ft 206kts
30-Apr-17 10:10 33.555999 -113.945717 265 8512ft 206kts
30-Apr-17 10:11 33.558723 -114.012756 281 8677ft 196kts
30-Apr-17 10:12 33.566341 -114.080036 282 8559ft 200kts
30-Apr-17 10:13 33.571513 -114.146965 275 8566ft 204kts
30-Apr-17 10:14 33.570960 -114.215905 271 8469ft 207kts
30-Apr-17 10:15 33.572564 -114.284578 278 8411ft 203kts
30-Apr-17 10:16 33.578754 -114.350354 282 8567ft 195kts
30-Apr-17 10:17 33.579882 -114.416944 273 8527ft 200kts
30-Apr-17 10:18 33.580512 -114.482779 278 8671ft 197kts
30-Apr-17 10:19 33.586560 -114.548535 281 8547ft 204kts
30-Apr-17 10:20 33.592238 -114.616833 276 8267ft 209kts
30-Apr-17 10:21 33.592753 -114.681506 276 8419ft 200kts
30-Apr-17 10:22 33.595674 -114.747888 276 8498ft 199kts
30-Apr-17 10:23 33.600154 -114.813906 290 8508ft 198kts
30-Apr-17 10:24 33.618181 -114.875635 283 8472ft 201kts
30-Apr-17 10:25 33.627783 -114.941064 286 8509ft 198kts
30-Apr-17 10:26 33.643185 -115.004777 290 8412ft 201kts
30-Apr-17 10:27 33.655170 -115.069772 283 8387ft 202kts
30-Apr-17 10:28 33.667968 -115.133913 289 8555ft 193kts
30-Apr-17 10:29 33.678261 -115.197828 281 8581ft 198kts
30-Apr-17 10:30 33.684318 -115.264512 281 8522ft 201kts
30-Apr-17 10:31 33.696870 -115.328831 289 8548ft 197kts
30-Apr-17 10:32 33.714714 -115.390780 291 8600ft 196kts
30-Apr-17 10:33 33.730815 -115.453573 287 8639ft 197kts
30-Apr-17 10:34 33.738833 -115.519549 277 8498ft 206kts
30-Apr-17 10:35 33.743384 -115.586649 280 8444ft 201kts
30-Apr-17 10:36 33.749567 -115.651103 280 8079ft 198kts
30-Apr-17 10:37 33.755899 -115.708684 284 7831ft 192kts
30-Apr-17 10:38 33.761952 -115.772157 272 7599ft 193kts
30-Apr-17 10:39 33.762979 -115.836507 285 7330ft 190kts
30-Apr-17 10:40 33.777749 -115.896073 289 7259ft 184kts
30-Apr-17 10:41 33.787902 -115.957460 284 7018ft 189kts
30-Apr-17 10:42 33.795238 -116.020273 281 6805ft 190kts
30-Apr-17 10:43 33.801308 -116.086153 277 6229ft 204kts
30-Apr-17 10:44 33.805827 -116.154504 278 5617ft 202kts
30-Apr-17 10:45 33.810298 -116.217373 279 4945ft 172kts
30-Apr-17 10:46 33.813362 -116.271018 278 4372ft 151kts
30-Apr-17 10:47 33.815797 -116.319933 278 3813ft 145kts
30-Apr-17 10:48 33.818094 -116.365772 278 3457ft 134kts
30-Apr-17 10:49 33.823086 -116.410721 271 2687ft 140kts
30-Apr-17 10:50 33.802006 -116.451021 240 1630ft 136kts
30-Apr-17 10:51 33.806400 -116.484761 332 934ft 96kts
30-Apr-17 10:52 33.826715 -116.502140 329 425ft 66kts
30-Apr-17 10:53 33.829982 -116.504422 56 425ft 0kts
30-Apr-17 10:54 33.832034 -116.505434 55 426ft 8kts
30-Apr-17 10:55 33.831998 -116.505039 142 425ft 0kts

Navigation Log

Ident Type
Flight plan parsing failed, navigation log unavailable